New Britain, Connecticut
Current Conditions -  °F | °C
As of 11:53 AM on Friday 31 Oct 2014 (Local Time) from KHFD Reporting Station
Clear Clear  
Wind Chill: 10°   Ceiling: Unl
Heat Index: 10°   Visibility: 10mi
Dew Point:   Wind: 5mph
Humidity: 66%   Direction: NA
Pressure: 30"   Gusts: NA
Location:  41.67°N, 72.78°W
Report Text: KHFD 311553Z VRB04KT 10SM CLR 10/04 A3000 RMK AO2 SLP158 T01000039
Loading
Personal Weather Stations






























Interactive Weather Map
Tropical Storm Tracking
New forecast layout! Learn more

10-Day Weather Forecast

Advertisements
Track Severe Weather on mobile